Time;durP1;ratioP1;P1;durP2;ratioP2;P2;SDS_P1;SDS_P2;PMS_P1;PMS_P2;Temp;Humidity;BMP_temperature;BMP_pressure;BME280_temperature;BME280_humidity;BME280_pressure;Samples;Min_cycle;Max_cycle;Signal;HPM_P1;HPM_P2
2022/11/04 00:01:35;;;;;;;20.63;12.73;;;9.40;1.00;;;;;;4938457;29;20659;-82
2022/11/04 00:04:02;;;;;;;22.57;12.30;;;9.40;1.00;;;;;;4938570;29;20213;-83
2022/11/04 00:06:30;;;;;;;20.37;12.20;;;9.40;1.00;;;;;;4938566;29;20266;-81
2022/11/04 00:08:58;;;;;;;23.40;12.30;;;9.40;1.00;;;;;;4938543;29;20195;-80
2022/11/04 00:14:14;;;;;;;19.63;11.73;;;9.40;1.00;;;;;;4938094;29;20192;-83
2022/11/04 00:19:26;;;;;;;21.73;12.53;;;9.40;1.00;;;;;;4938174;29;20191;-82
2022/11/04 00:30:10;;;;;;;24.83;13.03;;;9.30;1.00;;;;;;4937973;29;20226;-82
2022/11/04 00:35:22;;;;;;;23.03;13.33;;;9.30;1.00;;;;;;4918934;29;20188;-82
2022/11/04 00:37:51;;;;;;;23.03;12.67;;;9.30;1.00;;;;;;4921039;29;20285;-82
2022/11/04 00:40:18;;;;;;;23.13;12.90;;;9.30;1.00;;;;;;4937937;29;20205;-81
2022/11/04 00:42:46;;;;;;;20.63;12.97;;;9.30;1.00;;;;;;4937882;29;20216;-80
2022/11/04 00:45:13;;;;;;;24.90;13.87;;;9.30;1.00;;;;;;4937563;29;20630;-81
2022/11/04 00:47:40;;;;;;;23.57;12.90;;;9.30;1.00;;;;;;4937813;29;20201;-81
2022/11/04 00:50:08;;;;;;;25.87;13.00;;;9.20;1.00;;;;;;4937600;29;20207;-82
2022/11/04 00:52:35;;;;;;;22.10;12.90;;;9.20;1.00;;;;;;4937555;29;20663;-81
2022/11/04 00:55:04;;;;;;;24.50;14.00;;;9.20;1.00;;;;;;4937392;29;20205;-80
2022/11/04 00:57:32;;;;;;;23.47;13.40;;;9.20;6.50;;;;;;4937127;29;20239;-81
2022/11/04 00:59:59;;;;;;;21.40;12.73;;;9.20;32.90;;;;;;4937633;29;20211;-82
2022/11/04 01:02:26;;;;;;;22.87;13.30;;;9.20;59.00;;;;;;4937329;29;20205;-80
2022/11/04 01:04:53;;;;;;;26.87;14.50;;;9.10;90.60;;;;;;4937193;29;20612;-83
2022/11/04 01:07:20;;;;;;;28.67;14.07;;;9.10;99.90;;;;;;4937477;29;20268;-81
2022/11/04 01:09:48;;;;;;;27.43;13.87;;;9.10;99.90;;;;;;4937433;29;20262;-82
2022/11/04 01:12:16;;;;;;;26.13;14.20;;;9.10;99.90;;;;;;4937009;29;20250;-80
2022/11/04 01:14:44;;;;;;;24.60;13.93;;;9.00;99.90;;;;;;4936652;29;20253;-78
2022/11/04 01:17:11;;;;;;;26.07;14.20;;;9.00;99.90;;;;;;4937302;29;20198;-81
2022/11/04 01:19:38;;;;;;;24.87;14.43;;;9.00;99.90;;;;;;4937153;29;20202;-79
2022/11/04 01:22:05;;;;;;;24.37;14.27;;;8.90;99.90;;;;;;4937157;29;20612;-81
2022/11/04 01:24:32;;;;;;;25.23;13.90;;;8.90;99.90;;;;;;4936963;29;20218;-80
2022/11/04 01:26:59;;;;;;;26.33;14.17;;;8.90;99.90;;;;;;4937141;29;20211;-81
2022/11/04 01:29:27;;;;;;;26.70;15.17;;;8.80;99.90;;;;;;4936753;29;20208;-80
2022/11/04 01:31:54;;;;;;;23.77;14.00;;;8.80;1.00;;;;;;4936732;29;20560;-82
2022/11/04 01:34:21;;;;;;;24.73;14.63;;;8.80;1.00;;;;;;4936724;29;20199;-79
2022/11/04 01:36:48;;;;;;;24.03;14.40;;;8.80;1.00;;;;;;4936628;29;20284;-81
2022/11/04 01:39:15;;;;;;;22.77;14.33;;;8.80;1.00;;;;;;4936609;29;20205;-80
2022/11/04 01:41:42;;;;;;;24.50;14.37;;;8.70;1.00;;;;;;4936308;29;20565;-82
2022/11/04 01:44:52;;;;;;;24.80;14.13;;;8.70;1.00;;;;;;4936907;29;20613;-78
2022/11/04 01:47:22;;;;;;;22.23;13.57;;;8.70;1.00;;;;;;4936259;29;20740;-81
2022/11/04 01:49:52;;;;;;;28.33;14.40;;;8.70;1.00;;;;;;4936397;29;20203;-79
2022/11/04 01:52:28;;;;;;;26.33;14.93;;;8.60;1.00;;;;;;4936079;29;20192;-81
2022/11/04 01:54:59;;;;;;;29.83;14.60;;;8.60;1.00;;;;;;4936344;29;20221;-81
2022/11/04 01:57:32;;;;;;;29.70;15.70;;;8.60;1.00;;;;;;4936306;29;20195;-81
2022/11/04 02:00:04;;;;;;;27.07;15.10;;;8.50;1.00;;;;;;4936577;29;20182;-81
2022/11/04 02:02:31;;;;;;;23.07;15.00;;;8.50;1.00;;;;;;4936313;29;20191;-80
2022/11/04 02:04:58;;;;;;;27.97;15.10;;;8.50;1.00;;;;;;4935180;29;20196;-79
2022/11/04 02:07:25;;;;;;;24.50;14.37;;;8.40;1.00;;;;;;4935911;29;20737;-79
2022/11/04 02:09:52;;;;;;;27.10;15.63;;;8.40;1.00;;;;;;4936311;29;20277;-79
2022/11/04 02:15:05;;;;;;;26.33;14.97;;;8.30;92.00;;;;;;4936085;29;20183;-81
2022/11/04 02:17:47;;;;;;;25.50;14.80;;;8.30;99.90;;;;;;4936234;29;20546;-80
2022/11/04 02:20:29;;;;;;;26.67;15.03;;;8.20;99.90;;;;;;4936238;29;20194;-81
2022/11/04 02:23:36;;;;;;;25.37;15.13;;;8.20;99.90;;;;;;4935533;29;20825;-78
2022/11/04 02:26:32;;;;;;;25.17;14.70;;;8.10;99.90;;;;;;4933994;28;20237;-81
2022/11/04 02:29:26;;;;;;;28.00;15.40;;;8.10;99.90;;;;;;4935751;29;20187;-80
2022/11/04 02:32:03;;;;;;;29.30;15.60;;;8.00;1.00;;;;;;4935647;29;20522;-80
2022/11/04 02:34:39;;;;;;;34.27;15.43;;;8.00;1.00;;;;;;4935975;29;20189;-80
2022/11/04 02:37:14;;;;;;;29.10;15.27;;;7.90;1.00;;;;;;4935425;29;20627;-81
2022/11/04 02:39:51;;;;;;;26.20;15.37;;;7.90;1.00;;;;;;4935889;29;20587;-82
2022/11/04 02:42:29;;;;;;;26.53;15.40;;;7.90;1.00;;;;;;4935194;29;20724;-80
2022/11/04 02:45:12;;;;;;;24.50;15.23;;;7.90;1.00;;;;;;4935255;29;20257;-80
2022/11/04 02:47:45;;;;;;;26.67;15.93;;;7.90;1.00;;;;;;4935918;29;20243;-81
2022/11/04 02:50:17;;;;;;;33.90;15.43;;;7.80;1.00;;;;;;4935744;29;20185;-80
2022/11/04 02:52:54;;;;;;;25.57;15.40;;;7.80;97.50;;;;;;4935423;29;20189;-81
2022/11/04 02:55:26;;;;;;;24.03;14.87;;;7.80;99.90;;;;;;4935662;29;20610;-79
2022/11/04 02:57:56;;;;;;;26.87;14.30;;;7.80;99.90;;;;;;4935606;29;20232;-80
2022/11/04 03:00:25;;;;;;;26.43;14.77;;;7.70;99.90;;;;;;4935610;29;20178;-80
2022/11/04 03:02:56;;;;;;;25.80;15.30;;;7.70;99.90;;;;;;4935148;29;20668;-80
2022/11/04 03:05:27;;;;;;;28.20;15.90;;;7.70;99.90;;;;;;4935589;29;20595;-79
2022/11/04 03:07:58;;;;;;;26.80;15.40;;;7.70;1.00;;;;;;4935143;29;20182;-80
2022/11/04 03:10:34;;;;;;;27.37;15.50;;;7.70;1.00;;;;;;4934848;29;20204;-81
2022/11/04 03:13:05;;;;;;;29.63;16.33;;;7.80;1.00;;;;;;4935076;29;20185;-81
2022/11/04 03:15:35;;;;;;;29.67;16.73;;;7.70;1.00;;;;;;4934247;29;20248;-79
2022/11/04 03:18:11;;;;;;;27.17;15.90;;;7.70;1.00;;;;;;4934970;29;20201;-80
2022/11/04 03:20:40;;;;;;;29.20;15.73;;;7.70;1.00;;;;;;4935013;29;20197;-80
2022/11/04 03:23:09;;;;;;;28.30;15.80;;;7.70;1.00;;;;;;4934714;29;20276;-82
2022/11/04 03:25:40;;;;;;;31.17;16.20;;;7.70;1.00;;;;;;4934980;29;20660;-79
2022/11/04 03:28:21;;;;;;;30.07;16.10;;;7.70;36.80;;;;;;4934946;29;20200;-80
2022/11/04 03:30:54;;;;;;;30.13;16.50;;;7.70;94.80;;;;;;4924525;29;20244;-81
2022/11/04 03:33:27;;;;;;;27.67;14.93;;;7.70;33.80;;;;;;4935220;29;20181;-81
2022/11/04 03:35:54;;;;;;;24.97;15.80;;;7.70;93.60;;;;;;4934765;29;20244;-81
2022/11/04 03:38:22;;;;;;;29.77;16.53;;;7.70;99.90;;;;;;4935132;29;20181;-79
2022/11/04 03:40:49;;;;;;;26.27;16.03;;;7.80;99.90;;;;;;4935124;29;20576;-80
2022/11/04 03:43:21;;;;;;;28.30;16.70;;;7.70;99.90;;;;;;4935228;29;20200;-78
2022/11/04 03:45:50;;;;;;;27.07;16.13;;;7.70;99.90;;;;;;4935228;29;20592;-78
2022/11/04 03:48:17;;;;;;;30.53;15.30;;;7.70;99.90;;;;;;4934706;29;20202;-80
2022/11/04 03:50:46;;;;;;;28.60;15.73;;;7.70;99.90;;;;;;4935249;29;20202;-80
2022/11/04 03:53:16;;;;;;;28.93;16.03;;;7.70;99.90;;;;;;4934777;29;20683;-81
2022/11/04 03:55:51;;;;;;;28.80;15.77;;;7.70;99.90;;;;;;4934534;29;20564;-80
2022/11/04 03:58:30;;;;;;;26.87;15.87;;;7.70;99.90;;;;;;4934918;29;20194;-82
2022/11/04 04:01:07;;;;;;;32.30;16.50;;;7.70;1.00;;;;;;4934776;29;20644;-81
2022/11/04 04:03:41;;;;;;;27.37;16.37;;;7.70;99.90;;;;;;4934616;29;20205;-81
2022/11/04 04:06:14;;;;;;;26.40;15.50;;;7.70;1.00;;;;;;4931579;29;20196;-81
2022/11/04 04:08:47;;;;;;;29.03;16.30;;;7.60;1.00;;;;;;4934591;29;20190;-81
2022/11/04 04:11:19;;;;;;;27.37;15.80;;;7.70;1.00;;;;;;4934918;29;20262;-80
2022/11/04 04:13:53;;;;;;;29.87;15.97;;;7.70;1.00;;;;;;4934778;29;20189;-80
2022/11/04 04:16:27;;;;;;;30.37;17.30;;;7.60;1.00;;;;;;4933564;29;20256;-80
2022/11/04 04:18:58;;;;;;;25.93;15.80;;;7.70;1.00;;;;;;4934378;29;20178;-81
2022/11/04 04:21:30;;;;;;;31.97;16.87;;;7.70;1.00;;;;;;4934440;29;20194;-80
2022/11/04 04:29:40;;;;;;;28.27;16.07;;;7.60;1.00;;;;;;4902968;29;20201;-80
2022/11/04 04:32:09;;;;;;;29.63;15.97;;;7.60;1.00;;;;;;4937227;29;20225;-80
2022/11/04 04:34:37;;;;;;;25.83;16.37;;;7.70;1.00;;;;;;4937893;29;20244;-81
2022/11/04 04:37:07;;;;;;;27.30;16.27;;;7.70;1.00;;;;;;4937629;29;20217;-81
2022/11/04 04:45:11;;;;;;;30.50;16.97;;;7.70;1.00;;;;;;4937913;29;20670;-80
2022/11/04 04:47:47;;;;;;;30.17;16.87;;;7.70;1.00;;;;;;4937614;29;20186;-79
2022/11/04 04:50:16;;;;;;;30.57;15.93;;;7.60;1.00;;;;;;4937653;29;20185;-80
2022/11/04 04:52:45;;;;;;;27.73;16.30;;;7.60;1.00;;;;;;4937802;29;20237;-80
2022/11/04 04:55:13;;;;;;;30.40;16.70;;;7.60;1.00;;;;;;4937734;29;20209;-81
2022/11/04 04:57:40;;;;;;;31.77;16.70;;;7.50;1.00;;;;;;4937244;29;20201;-80
2022/11/04 05:00:11;;;;;;;28.10;16.27;;;7.50;1.00;;;;;;4937580;29;20196;-79
2022/11/04 05:02:38;;;;;;;25.63;16.40;;;7.50;1.00;;;;;;4937631;29;20205;-81
2022/11/04 05:05:08;;;;;;;29.03;17.27;;;7.40;1.00;;;;;;4936972;29;20213;-81
2022/11/04 05:07:35;;;;;;;29.20;16.50;;;7.40;1.00;;;;;;4936613;29;20663;-79
2022/11/04 05:10:02;;;;;;;27.53;15.90;;;7.40;1.00;;;;;;4937419;29;20197;-82
2022/11/04 05:13:24;;;;;;;25.90;16.43;;;7.40;1.00;;;;;;4937374;29;20196;-80
2022/11/04 05:15:17;;;;;;;27.27;15.70;;;7.40;1.00;;;;;;4936957;29;20192;-81
2022/11/04 05:17:44;;;;;;;28.43;16.33;;;7.50;1.00;;;;;;4937039;29;20236;-82
2022/11/04 05:20:12;;;;;;;29.07;16.50;;;7.50;1.00;;;;;;4936957;29;20249;-80
2022/11/04 05:22:39;;;;;;;26.27;16.43;;;7.60;1.00;;;;;;4937232;29;20613;-79
2022/11/04 05:25:07;;;;;;;28.57;16.07;;;7.60;1.00;;;;;;4937078;29;20323;-79
2022/11/04 05:27:34;;;;;;;30.60;16.93;;;7.70;1.00;;;;;;4936876;29;20256;-80
2022/11/04 05:30:01;;;;;;;28.27;16.77;;;7.70;1.00;;;;;;4937096;29;20225;-82
2022/11/04 05:32:30;;;;;;;32.03;17.17;;;7.80;1.00;;;;;;4937026;29;20208;-82
2022/11/04 05:34:57;;;;;;;29.63;16.50;;;7.90;1.00;;;;;;4936676;29;20239;-80
2022/11/04 05:37:26;;;;;;;27.37;17.37;;;7.90;1.00;;;;;;4936387;29;20225;-82
2022/11/04 05:39:53;;;;;;;27.77;17.20;;;7.90;27.00;;;;;;4936439;29;20201;-82
2022/11/04 05:42:20;;;;;;;29.43;16.87;;;7.90;1.00;;;;;;4937149;29;20256;-80
2022/11/04 05:44:47;;;;;;;30.73;17.23;;;7.90;97.40;;;;;;4936435;29;20221;-81
2022/11/04 05:47:14;;;;;;;27.80;17.10;;;8.00;99.90;;;;;;4936224;29;20196;-80
2022/11/04 05:49:41;;;;;;;29.93;16.17;;;8.00;99.90;;;;;;4936278;29;20723;-82
2022/11/04 05:52:08;;;;;;;32.13;16.53;;;7.90;99.90;;;;;;4936723;29;20205;-81
2022/11/04 05:54:38;;;;;;;34.20;17.70;;;7.90;99.90;;;;;;4936447;29;20265;-80
2022/11/04 05:57:05;;;;;;;35.77;17.50;;;7.90;99.90;;;;;;4936228;29;20276;-79
2022/11/04 05:59:32;;;;;;;26.43;16.40;;;7.90;99.90;;;;;;4936706;29;20249;-81
2022/11/04 06:01:59;;;;;;;29.13;17.33;;;7.90;99.90;;;;;;4936267;29;20198;-82
2022/11/04 06:04:26;;;;;;;28.50;17.10;;;7.90;1.00;;;;;;4936148;29;20698;-80
2022/11/04 06:06:53;;;;;;;32.97;17.57;;;8.00;1.00;;;;;;4936246;29;20197;-80
2022/11/04 06:09:37;;;;;;;29.37;16.90;;;8.00;1.00;;;;;;4935837;29;20194;-82
2022/11/04 06:12:07;;;;;;;42.30;23.53;;;8.00;1.00;;;;;;4936092;29;20194;-80
2022/11/04 06:14:34;;;;;;;28.93;17.27;;;8.10;1.00;;;;;;4936094;29;20330;-80
2022/11/04 06:17:01;;;;;;;27.17;17.33;;;8.20;1.00;;;;;;4935434;29;20256;-81
2022/11/04 06:19:28;;;;;;;28.73;17.33;;;8.30;1.00;;;;;;4935790;29;20621;-81
2022/11/04 06:21:55;;;;;;;33.50;19.13;;;8.30;99.90;;;;;;4936169;29;20210;-81
2022/11/04 06:24:22;;;;;;;29.80;17.03;;;8.40;99.90;;;;;;4935809;29;20229;-80
2022/11/04 06:26:49;;;;;;;28.77;16.73;;;8.50;99.90;;;;;;4935860;29;20276;-81
2022/11/04 06:29:17;;;;;;;30.00;17.20;;;8.60;99.90;;;;;;4935849;29;20261;-81
2022/11/04 06:31:44;;;;;;;32.03;17.33;;;8.70;1.00;;;;;;4935380;29;20194;-81
2022/11/04 06:34:11;;;;;;;29.37;17.17;;;8.70;1.00;;;;;;4935741;29;20202;-80
2022/11/04 06:36:38;;;;;;;25.47;17.27;;;8.80;1.00;;;;;;4935066;29;20238;-79
2022/11/04 06:39:05;;;;;;;27.73;17.03;;;9.00;1.00;;;;;;4935683;29;20197;-80
2022/11/04 06:41:32;;;;;;;28.00;16.47;;;9.10;1.00;;;;;;4935343;29;20203;-81
2022/11/04 06:44:00;;;;;;;27.37;16.63;;;9.20;1.00;;;;;;4935490;29;20204;-80
2022/11/04 06:46:34;;;;;;;30.87;16.93;;;9.30;1.00;;;;;;4935501;29;20445;-83
2022/11/04 06:49:01;;;;;;;26.83;15.37;;;9.50;1.00;;;;;;4935222;29;20195;-80
2022/11/04 06:51:28;;;;;;;25.90;15.67;;;9.60;99.90;;;;;;4935640;29;20265;-81
2022/11/04 06:53:55;;;;;;;25.70;16.30;;;9.70;79.80;;;;;;4935370;29;20742;-81
2022/11/04 06:56:22;;;;;;;27.13;16.37;;;9.70;1.00;;;;;;4934794;29;20258;-80
2022/11/04 06:58:50;;;;;;;23.90;15.13;;;9.80;1.00;;;;;;4935363;29;20301;-81
2022/11/04 07:01:17;;;;;;;26.97;16.20;;;9.90;1.00;;;;;;4935345;29;20258;-81
2022/11/04 07:03:49;;;;;;;27.83;15.97;;;9.90;1.00;;;;;;4935256;29;20203;-83
2022/11/04 07:06:16;;;;;;;26.23;17.03;;;10.00;1.00;;;;;;4935227;29;20209;-80
2022/11/04 07:08:43;;;;;;;25.63;16.57;;;10.00;99.90;;;;;;4935197;29;20255;-83
2022/11/04 07:11:10;;;;;;;28.30;16.07;;;10.10;99.90;;;;;;4935255;29;20208;-81
2022/11/04 07:13:37;;;;;;;24.27;15.17;;;10.10;99.90;;;;;;4934919;29;20207;-80
2022/11/04 07:16:05;;;;;;;24.97;15.30;;;10.20;42.50;;;;;;4934869;29;20200;-82
2022/11/04 07:18:33;;;;;;;26.43;16.03;;;10.20;1.00;;;;;;4935144;29;20297;-81
2022/11/04 07:21:02;;;;;;;22.50;15.07;;;10.20;1.00;;;;;;4935091;29;20196;-80
2022/11/04 07:23:29;;;;;;;26.97;16.17;;;10.30;1.00;;;;;;4935276;29;20208;-79
2022/11/04 07:26:00;;;;;;;26.73;15.57;;;10.30;1.00;;;;;;4934967;29;20275;-81
2022/11/04 07:28:27;;;;;;;23.50;15.20;;;10.30;1.00;;;;;;4935285;29;20197;-80
2022/11/04 07:30:57;;;;;;;26.77;16.83;;;10.30;1.00;;;;;;4934772;29;20204;-83
2022/11/04 07:33:25;;;;;;;24.77;16.20;;;10.40;1.00;;;;;;4934767;29;20734;-80
2022/11/04 07:35:52;;;;;;;29.90;19.03;;;10.50;1.00;;;;;;4934415;29;20475;-80
2022/11/04 07:38:21;;;;;;;31.10;19.30;;;10.60;1.00;;;;;;4934509;29;20703;-80
2022/11/04 07:40:48;;;;;;;30.30;18.63;;;10.70;1.00;;;;;;4934473;29;20198;-81
2022/11/04 07:43:16;;;;;;;33.03;18.60;;;10.70;99.90;;;;;;4934919;29;20198;-80
2022/11/04 07:45:43;;;;;;;27.47;17.27;;;10.80;99.90;;;;;;4934520;29;20232;-80
2022/11/04 07:48:10;;;;;;;35.57;17.80;;;10.80;99.90;;;;;;4934890;29;20205;-82
2022/11/04 07:50:39;;;;;;;27.20;17.03;;;10.90;99.90;;;;;;4934494;29;20206;-80
2022/11/04 07:53:06;;;;;;;26.47;17.00;;;10.90;99.40;;;;;;4934544;29;20287;-83
2022/11/04 07:55:36;;;;;;;29.83;15.60;;;10.90;17.40;;;;;;4934884;29;20292;-82
2022/11/04 07:58:03;;;;;;;24.40;16.47;;;11.00;1.00;;;;;;4915836;29;20184;-83
2022/11/04 08:00:30;;;;;;;26.93;17.37;;;11.00;1.00;;;;;;4916010;29;20634;-80
2022/11/04 08:02:57;;;;;;;25.43;16.83;;;11.10;1.00;;;;;;4918650;29;20262;-80
2022/11/04 08:05:24;;;;;;;30.93;20.37;;;11.10;1.00;;;;;;4919282;29;20282;-82
2022/11/04 08:07:51;;;;;;;33.73;20.37;;;11.20;1.00;;;;;;4919067;29;20199;-83
2022/11/04 08:10:18;;;;;;;29.73;17.70;;;11.20;1.00;;;;;;4919384;29;20557;-81
2022/11/04 08:12:47;;;;;;;28.77;18.17;;;11.30;1.00;;;;;;4919028;29;20207;-81
2022/11/04 08:15:14;;;;;;;28.37;18.40;;;11.30;1.00;;;;;;4919282;29;20201;-82
2022/11/04 08:17:41;;;;;;;28.27;18.30;;;11.40;1.00;;;;;;4919100;29;20200;-83
2022/11/04 08:20:09;;;;;;;28.10;18.10;;;11.40;1.00;;;;;;4919174;29;20197;-80
2022/11/04 08:22:36;;;;;;;25.40;17.07;;;11.40;99.90;;;;;;4919176;29;20335;-81
2022/11/04 08:25:03;;;;;;;29.37;17.80;;;11.50;99.90;;;;;;4921597;29;20224;-82
2022/11/04 08:27:30;;;;;;;27.57;17.73;;;11.60;1.00;;;;;;4938070;29;20201;-80
2022/11/04 08:29:59;;;;;;;28.80;16.37;;;11.60;99.90;;;;;;4938086;29;20203;-83
2022/11/04 08:32:26;;;;;;;24.90;16.50;;;11.60;99.90;;;;;;4937982;29;20726;-80
2022/11/04 08:34:53;;;;;;;27.73;15.80;;;11.70;99.90;;;;;;4937645;29;20259;-80
2022/11/04 08:37:19;;;;;;;23.63;16.20;;;11.70;99.90;;;;;;4936844;29;20709;-81
2022/11/04 08:39:46;;;;;;;26.80;16.10;;;11.80;99.90;;;;;;4937174;29;20541;-80
2022/11/04 08:42:14;;;;;;;26.33;15.97;;;11.80;99.90;;;;;;4937845;29;20335;-80
2022/11/04 08:44:41;;;;;;;25.33;16.20;;;11.90;99.90;;;;;;4937643;29;20201;-80
2022/11/04 08:47:10;;;;;;;28.13;15.87;;;11.90;99.90;;;;;;4937475;29;20551;-81
2022/11/04 08:49:38;;;;;;;25.67;15.93;;;12.00;99.90;;;;;;4937297;29;20689;-81
2022/11/04 08:52:05;;;;;;;24.37;16.27;;;12.00;93.30;;;;;;4937825;29;20255;-81
2022/11/04 08:54:33;;;;;;;24.40;16.10;;;12.10;99.90;;;;;;4937691;29;20237;-80
2022/11/04 08:56:59;;;;;;;27.53;16.03;;;12.20;75.20;;;;;;4937357;29;20272;-80
2022/11/04 08:59:27;;;;;;;22.83;15.20;;;12.30;1.00;;;;;;4937502;29;20239;-80
2022/11/04 09:01:54;;;;;;;26.30;15.97;;;12.50;1.00;;;;;;4937446;29;20201;-79
2022/11/04 09:04:22;;;;;;;26.03;15.87;;;12.60;1.00;;;;;;4937453;29;20250;-80
2022/11/04 09:06:51;;;;;;;26.57;16.37;;;12.70;1.00;;;;;;4936906;29;20595;-81
2022/11/04 09:09:18;;;;;;;23.23;15.50;;;12.70;1.00;;;;;;4937014;29;20204;-80
2022/11/04 09:11:46;;;;;;;25.87;16.53;;;12.70;1.00;;;;;;4936969;29;20668;-80
2022/11/04 09:14:13;;;;;;;21.57;14.70;;;12.70;1.00;;;;;;4935752;29;20611;-82
2022/11/04 09:16:41;;;;;;;26.87;16.03;;;12.80;1.00;;;;;;4936721;29;20289;-84
2022/11/04 09:19:08;;;;;;;25.80;16.50;;;12.90;1.00;;;;;;4937401;29;20231;-81
2022/11/04 09:21:36;;;;;;;23.07;15.37;;;12.90;1.00;;;;;;4937037;29;20695;-84
2022/11/04 09:24:04;;;;;;;25.20;15.33;;;12.90;1.00;;;;;;4936706;29;20246;-80
2022/11/04 09:26:32;;;;;;;25.23;15.80;;;12.90;1.00;;;;;;4936901;29;20230;-81
2022/11/04 09:29:00;;;;;;;24.03;15.77;;;12.80;1.00;;;;;;4936938;29;20202;-81
2022/11/04 09:31:29;;;;;;;24.10;16.33;;;12.80;1.00;;;;;;4936927;29;20597;-81
2022/11/04 09:33:56;;;;;;;21.67;15.37;;;12.70;1.00;;;;;;4936593;29;20673;-81
2022/11/04 09:36:23;;;;;;;22.83;16.43;;;12.60;1.00;;;;;;4936277;29;20221;-84
2022/11/04 09:38:52;;;;;;;23.97;16.47;;;12.60;1.00;;;;;;4936815;29;20213;-81
2022/11/04 09:41:41;;;;;;;28.00;15.33;;;12.70;1.00;;;;;;4936484;29;20622;-81
2022/11/04 09:44:18;;;;;;;24.03;16.33;;;12.80;1.00;;;;;;4936901;29;20245;-79
2022/11/04 09:46:48;;;;;;;23.57;15.80;;;12.90;1.00;;;;;;4936685;29;20215;-81
2022/11/04 09:49:16;;;;;;;24.70;16.07;;;13.00;1.00;;;;;;4936616;29;20242;-83
2022/11/04 09:51:45;;;;;;;22.10;15.47;;;13.10;1.00;;;;;;4936006;29;20200;-84
2022/11/04 09:54:20;;;;;;;24.03;15.00;;;13.20;1.00;;;;;;4936239;29;20199;-80
2022/11/04 09:56:50;;;;;;;24.20;15.63;;;13.30;1.00;;;;;;4936477;29;20628;-80
2022/11/04 09:59:24;;;;;;;22.50;14.93;;;13.50;1.00;;;;;;4936758;29;20790;-82
2022/11/04 10:02:05;;;;;;;23.63;14.83;;;13.70;1.00;;;;;;4936408;29;20192;-81
2022/11/04 10:04:49;;;;;;;24.40;15.60;;;14.10;1.00;;;;;;4936098;29;20633;-80
2022/11/04 10:07:33;;;;;;;22.63;15.20;;;14.50;99.90;;;;;;4935925;29;20537;-81
2022/11/04 10:10:08;;;;;;;23.55;15.23;;;14.90;99.90;;;;;;4935901;29;20196;-81
2022/11/04 10:12:53;;;;;;;19.45;14.27;;;15.20;99.90;;;;;;4936127;29;20198;-82
2022/11/04 10:15:41;;;;;;;23.63;14.57;;;15.40;99.90;;;;;;4935931;29;20195;-81
2022/11/04 10:18:21;;;;;;;23.15;14.50;;;15.60;87.90;;;;;;4936274;29;20260;-81
2022/11/04 10:20:57;;;;;;;21.42;14.85;;;15.60;26.80;;;;;;4935673;29;20193;-85
2022/11/04 10:23:32;;;;;;;20.65;14.38;;;15.40;22.00;;;;;;4935746;29;20703;-81
2022/11/04 10:26:09;;;;;;;23.95;15.00;;;15.30;13.70;;;;;;4935579;29;20207;-83
2022/11/04 10:28:42;;;;;;;24.08;15.35;;;15.10;16.40;;;;;;4935919;29;20239;-81
2022/11/04 10:31:14;;;;;;;41.67;27.83;;;14.80;45.10;;;;;;4936129;29;20192;-81
2022/11/04 10:33:45;;;;;;;31.07;18.93;;;14.60;91.00;;;;;;4935549;29;20273;-81
2022/11/04 10:36:12;;;;;;;38.90;25.00;;;14.40;99.90;;;;;;4916818;29;20292;-80
2022/11/04 10:38:44;;;;;;;33.27;20.10;;;14.20;99.90;;;;;;4917025;29;20193;-80
2022/11/04 10:41:33;;;;;;;57.67;29.37;;;14.10;99.90;;;;;;4917000;29;20197;-81
2022/11/04 10:44:06;;;;;;;33.67;23.20;;;14.10;99.90;;;;;;4916683;29;20192;-81
2022/11/04 10:46:50;;;;;;;29.70;19.73;;;14.00;99.90;;;;;;4916559;29;20256;-82
2022/11/04 10:49:42;;;;;;;31.77;21.03;;;14.00;99.90;;;;;;4916601;29;20186;-79
2022/11/04 10:52:11;;;;;;;23.63;17.10;;;14.10;99.90;;;;;;4916626;29;20530;-82
2022/11/04 10:54:41;;;;;;;28.47;18.17;;;14.10;99.90;;;;;;4925932;29;20206;-81
2022/11/04 10:57:10;;;;;;;30.93;17.23;;;14.20;99.90;;;;;;4935152;29;20206;-82
2022/11/04 10:59:50;;;;;;;23.73;16.63;;;14.30;99.90;;;;;;4935102;29;20228;-80
2022/11/04 11:02:17;;;;;;;23.00;16.33;;;14.30;99.90;;;;;;4935406;29;20188;-80
2022/11/04 11:04:46;;;;;;;25.63;16.93;;;14.40;99.90;;;;;;4935574;29;20203;-81
2022/11/04 11:07:21;;;;;;;30.80;20.20;;;14.40;99.90;;;;;;4935306;29;20213;-81
2022/11/04 11:35:14;;;;;;;;;;;;;;;;;;;;;
2022/11/04 12:08:46;;;;;;;65.05;37.25;;;15.50;1.00;;;;;;4789839;29;20215;-81
2022/11/04 12:11:19;;;;;;;48.30;29.85;;;15.30;1.00;;;;;;4826623;29;20213;-81
2022/11/04 12:13:51;;;;;;;29.15;18.70;;;15.20;1.00;;;;;;4922239;29;20202;-81
2022/11/04 12:16:32;;;;;;;25.63;17.33;;;15.00;1.00;;;;;;4938585;29;20183;-80
2022/11/04 12:19:14;;;;;;;25.63;16.97;;;14.90;1.00;;;;;;4938388;29;20179;-80
2022/11/04 12:30:32;;;;;;;25.02;16.85;;;14.70;36.20;;;;;;4879149;29;20208;-81
2022/11/04 12:33:14;;;;;;;23.55;16.42;;;14.70;22.60;;;;;;4878747;29;20708;-80
2022/11/04 12:35:56;;;;;;;38.15;25.45;;;14.60;31.20;;;;;;4883835;29;20202;-82
2022/11/04 12:38:40;;;;;;;27.77;17.95;;;14.60;56.60;;;;;;4937611;29;20655;-81
2022/11/04 12:41:18;;;;;;;27.43;18.07;;;14.60;52.50;;;;;;4937908;29;20191;-81
2022/11/04 12:43:55;;;;;;;35.08;19.08;;;14.60;63.90;;;;;;4937821;29;20279;-81
2022/11/04 12:46:29;;;;;;;44.08;22.08;;;14.60;70.60;;;;;;4937385;29;20753;-81
2022/11/04 12:49:33;;;;;;;35.00;19.95;;;14.60;83.40;;;;;;4937219;29;20239;-81
2022/11/04 12:52:13;;;;;;;27.40;17.45;;;14.60;99.00;;;;;;4936578;29;20257;-81
2022/11/04 12:54:53;;;;;;;30.88;18.85;;;14.70;79.60;;;;;;4937679;29;20513;-81
2022/11/04 12:57:25;;;;;;;32.80;20.60;;;14.70;52.00;;;;;;4937788;29;20599;-83
2022/11/04 13:00:06;;;;;;;27.20;18.23;;;14.70;49.60;;;;;;4937316;29;20196;-81
2022/11/04 13:02:38;;;;;;;28.67;18.08;;;14.60;42.60;;;;;;4937209;29;20642;-81
2022/11/04 13:05:18;;;;;;;28.95;18.40;;;14.60;66.70;;;;;;4937506;29;20178;-83
2022/11/04 13:07:54;;;;;;;34.17;18.92;;;14.50;86.30;;;;;;4937101;29;20203;-81
2022/11/04 13:10:26;;;;;;;35.80;19.55;;;14.40;99.90;;;;;;4937535;29;20180;-81
2022/11/04 13:12:55;;;;;;;25.80;18.23;;;14.40;99.50;;;;;;4936575;29;20603;-80
2022/11/04 13:15:27;;;;;;;31.00;20.13;;;14.40;99.90;;;;;;4937500;29;20617;-83
2022/11/04 13:18:00;;;;;;;32.70;19.35;;;14.30;99.90;;;;;;4937068;29;20222;-81
2022/11/04 13:20:33;;;;;;;30.90;18.45;;;14.30;99.90;;;;;;4937037;29;20192;-83
2022/11/04 13:23:08;;;;;;;26.80;18.97;;;14.30;99.90;;;;;;4936892;29;20188;-81
2022/11/04 13:25:41;;;;;;;31.60;19.23;;;14.30;99.90;;;;;;4936771;29;20234;-81
2022/11/04 13:28:12;;;;;;;29.65;18.70;;;14.40;99.90;;;;;;4937106;29;20183;-83
2022/11/04 13:30:45;;;;;;;28.48;18.55;;;14.40;99.90;;;;;;4936760;29;20281;-81
2022/11/04 13:33:19;;;;;;;28.60;19.17;;;14.40;99.90;;;;;;4936661;29;20245;-81
2022/11/04 13:35:57;;;;;;;28.03;19.30;;;14.40;99.90;;;;;;4936714;29;20547;-81
2022/11/04 13:38:31;;;;;;;26.63;18.40;;;14.30;99.90;;;;;;4936985;29;20248;-81
2022/11/04 13:41:11;;;;;;;25.95;18.55;;;14.30;99.90;;;;;;4936487;29;20599;-81
2022/11/04 13:43:41;;;;;;;39.63;24.17;;;14.20;99.90;;;;;;4936747;29;20192;-81
2022/11/04 13:46:23;;;;;;;26.80;18.27;;;14.10;99.90;;;;;;4936376;29;20213;-81
2022/11/04 13:49:00;;;;;;;29.17;19.07;;;14.10;99.90;;;;;;4936923;29;20192;-81
2022/11/04 13:51:36;;;;;;;50.40;31.90;;;14.00;99.90;;;;;;4936330;29;20190;-83
2022/11/04 13:54:06;;;;;;;37.87;25.27;;;13.90;99.90;;;;;;4936661;29;20251;-82
2022/11/04 13:56:36;;;;;;;29.17;20.27;;;13.90;99.90;;;;;;4936551;29;20188;-81
2022/11/04 13:59:18;;;;;;;48.67;29.50;;;13.80;99.90;;;;;;4935492;29;20671;-81
2022/11/04 14:01:46;;;;;;;39.87;25.93;;;13.70;99.90;;;;;;4935675;29;20663;-82
2022/11/04 14:04:27;;;;;;;35.90;23.77;;;13.60;99.90;;;;;;4941436;29;20195;-82
2022/11/04 14:06:57;;;;;;;35.57;22.67;;;13.50;99.90;;;;;;4951446;28;20217;-82
2022/11/04 14:09:52;;;;;;;32.80;19.93;;;13.50;99.90;;;;;;4938771;28;20180;-84
2022/11/04 14:12:34;;;;;;;51.07;32.90;;;13.50;99.90;;;;;;4916549;29;20208;-82
2022/11/04 14:15:49;;;;;;;99.73;51.97;;;13.40;99.90;;;;;;4917053;29;20181;-82
2022/11/04 14:18:28;;;;;;;112.73;56.53;;;13.30;99.90;;;;;;4911293;29;20215;-84
2022/11/04 14:21:04;;;;;;;72.60;38.50;;;13.20;99.90;;;;;;4917163;29;20197;-82
2022/11/04 14:23:31;;;;;;;176.90;78.43;;;13.20;99.90;;;;;;4934948;29;20203;-82
2022/11/04 14:26:03;;;;;;;238.93;114.77;;;13.10;99.90;;;;;;4935218;29;20193;-82
2022/11/04 14:28:31;;;;;;;158.63;74.47;;;13.00;99.90;;;;;;4935364;29;20188;-82
2022/11/04 14:30:59;;;;;;;88.37;48.30;;;13.00;99.90;;;;;;4916794;29;20619;-82
2022/11/04 14:33:34;;;;;;;420.47;218.83;;;12.90;1.00;;;;;;4916827;29;20617;-82
2022/11/04 14:36:29;;;;;;;247.00;102.83;;;12.80;1.00;;;;;;4916619;29;20243;-82